Aeroporto :
LOGIN :

Iscrizione | Disclaimer

   EN    FR    IT 

 










Sommario :    VFR   VFR Marginale   IFR   IFR Intensivo   IFR Molto Intensivo
Visibilità : 
Base nubi : 
>= 8 km
>= 3000ft
5 / 8 km
1000 / 3000 ft
1500m / 5 km
500 / 1000 ft
800 / 1500m
200 / 500 ft
< 800m
< 200 ft
Simboli :   Temporali  Nebbia  Neve Forte  Precipitazioni Forti  Vento > 20 kt
SIGMETs :   Varie  Temporali  Ghiacco  Turbolenza  Onda orograficha  Ceneri Vulcaniche







- Altitudine del aeroporto : 408 ft
- Codice IATA : SOB


LHSM - Sarmellek Balaton

ULTIMO METAR :
  • 260715Z 18009KT CAVOK 19/13 Q1015 NOSIG

METARs OBSOLETI :
  • 260645Z 17008KT CAVOK 17/12 Q1015 NOSIG
  • 260615Z 17008KT CAVOK 17/11 Q1015
  • 260545Z 18007KT CAVOK 15/12 Q1015
  • 260515Z 19004KT CAVOK 13/12 Q1015
  • 260445Z 16005KT CAVOK 11/10 Q1015

TAF TAF LHSM
Valido dal 26 a 06 ore il 26 a 15 ore UTC


260515Z 2606/2615 17005KT CAVOK
BECMG 2609/2612 20011KT
PROB40
TEMPO 2614/2615 VRB15G35KT 4000 SHRA TSRA BKN040CB
Nessun NOTAM noto per questo aeroporto.



MetMap, La meteo Aeronautica in un colpo d'occhio ! - Copyright ORBIFLY Dicembre 2007 - Disclaimer

ORBIFLY MET'MAP TEAM :

Programmazione e sviluppo : Alexandra Zaïnal
Concezione e sviluppo : Baudouin d'Aumeries
Co-Programmazione e sviluppo : Marc-Olivier Méhu
Supporto tecnico e logistico : Manuel Goepfert
Aiuto per la traduzione : Arnaldo La Scala

Contatto : metmap@orbifly.com




FONTI E CREDITI :

   NOAA